createdAt,value
2022-11-30T00:01:23.751Z,99028.72
2022-11-30T00:03:57.951Z,99037.44
2022-11-30T00:06:26.025Z,99030.34
2022-11-30T00:08:55.843Z,99032.31
2022-11-30T00:11:25.878Z,99030.28
2022-11-30T00:13:54.114Z,99032.78
2022-11-30T00:16:22.137Z,99020.84
2022-11-30T00:18:50.538Z,99018.38
2022-11-30T00:21:18.723Z,99018.09
2022-11-30T00:23:48.152Z,99015.38
2022-11-30T00:26:18.284Z,99017.25
2022-11-30T00:28:48.485Z,99018.09
2022-11-30T00:31:18.549Z,99018.38
2022-11-30T00:33:47.163Z,99014.00
2022-11-30T00:36:17.806Z,99022.97
2022-11-30T00:38:46.424Z,99021.34
2022-11-30T00:41:15.143Z,99033.25
2022-11-30T00:43:43.191Z,99023.72
2022-11-30T00:46:11.419Z,99022.97
2022-11-30T00:48:40.435Z,99025.38
2022-11-30T00:51:10.781Z,99021.88
2022-11-30T00:53:40.033Z,99028.72
2022-11-30T00:56:08.996Z,99031.56
2022-11-30T00:58:36.895Z,99035.94
2022-11-30T01:01:04.957Z,99035.72
2022-11-30T01:03:33.704Z,99044.91
2022-11-30T01:06:10.905Z,99046.50
2022-11-30T01:08:38.825Z,99042.13
2022-11-30T01:11:26.481Z,99030.81
2022-11-30T01:13:55.804Z,99042.94
2022-11-30T01:16:30.502Z,99030.59
2022-11-30T01:18:58.531Z,99047.88
2022-11-30T01:21:28.709Z,99049.44
2022-11-30T01:23:56.822Z,99057.06
2022-11-30T01:26:24.930Z,99063.38
2022-11-30T01:28:54.578Z,99057.66
2022-11-30T01:31:24.254Z,99053.81
2022-11-30T01:33:54.165Z,99050.06
2022-11-30T01:36:28.506Z,99066.25
2022-11-30T01:38:57.972Z,99058.19
2022-11-30T01:41:32.354Z,99053.06
2022-11-30T01:44:06.360Z,99057.13
2022-11-30T01:46:49.754Z,99052.00
2022-11-30T01:49:25.486Z,99045.81
2022-11-30T01:52:03.448Z,99060.44
2022-11-30T01:54:47.696Z,99052.31
2022-11-30T01:57:22.912Z,99045.00
2022-11-30T01:59:53.538Z,99048.53
2022-11-30T02:02:31.040Z,99054.25
2022-11-30T02:04:59.193Z,99066.19
2022-11-30T02:07:27.611Z,99048.53
2022-11-30T02:09:55.619Z,99058.06
2022-11-30T02:12:40.718Z,99061.34
2022-11-30T02:15:12.651Z,99061.31
2022-11-30T02:18:13.799Z,99054.53
2022-11-30T02:20:53.536Z,99042.56
2022-11-30T02:23:45.680Z,99050.69
2022-11-30T02:26:22.292Z,99054.53
2022-11-30T02:28:59.349Z,99055.59
2022-11-30T02:31:52.329Z,99053.47
2022-11-30T02:34:23.872Z,99053.22
2022-11-30T02:36:54.352Z,99051.56
2022-11-30T02:39:23.456Z,99048.03
2022-11-30T02:41:51.381Z,99029.34
2022-11-30T02:44:21.973Z,99053.75
2022-11-30T02:46:53.407Z,99046.38
2022-11-30T02:49:39.897Z,99035.78
2022-11-30T02:52:10.686Z,99035.56
2022-11-30T02:54:38.727Z,99042.91
2022-11-30T02:57:07.005Z,99046.13
2022-11-30T02:59:35.445Z,99033.34
2022-11-30T03:02:03.418Z,99038.28
2022-11-30T03:04:31.318Z,99044.53
2022-11-30T03:06:59.307Z,99049.09
2022-11-30T03:09:27.438Z,99045.31
2022-11-30T03:11:55.351Z,99038.00
2022-11-30T03:14:23.255Z,99047.78
2022-11-30T03:16:51.158Z,99048.03
2022-11-30T03:19:19.065Z,99046.94
2022-11-30T03:21:47.019Z,99048.56
2022-11-30T03:24:14.960Z,99056.72
2022-11-30T03:26:43.028Z,99057.53
2022-11-30T03:29:10.893Z,99050.97
2022-11-30T03:31:38.846Z,99048.28
2022-11-30T03:34:06.708Z,99055.06
2022-11-30T03:36:34.611Z,99063.47
2022-11-30T03:39:02.747Z,99059.94
2022-11-30T03:41:30.838Z,99068.09
2022-11-30T03:43:58.709Z,99068.91
2022-11-30T03:46:27.622Z,99046.69
2022-11-30T03:48:55.630Z,99056.44
2022-11-30T03:51:23.665Z,99061.88
2022-11-30T03:53:51.557Z,99068.34
2022-11-30T03:56:20.514Z,99066.97
2022-11-30T03:58:48.424Z,99070.50
2022-11-30T04:01:19.360Z,99065.34
2022-11-30T04:03:49.420Z,99067.25
2022-11-30T04:06:17.940Z,99076.94
2022-11-30T04:08:46.067Z,99069.09
2022-11-30T04:11:14.210Z,99067.22
2022-11-30T04:13:42.733Z,99068.03
2022-11-30T04:16:10.657Z,99078.34
2022-11-30T04:18:39.527Z,99070.22
2022-11-30T04:21:08.398Z,99066.38
2022-11-30T04:23:39.090Z,99075.06
2022-11-30T04:26:11.568Z,99073.94
2022-11-30T04:28:39.800Z,99067.44
2022-11-30T04:31:08.703Z,99071.00
2022-11-30T04:33:36.997Z,99069.88
2022-11-30T04:36:06.886Z,99076.94
2022-11-30T04:38:36.705Z,99080.78
2022-11-30T04:41:08.921Z,99067.75
2022-11-30T04:43:37.214Z,99080.47
2022-11-30T04:46:06.225Z,99081.84
2022-11-30T04:48:34.522Z,99073.19
2022-11-30T04:51:08.081Z,99086.78
2022-11-30T04:53:37.613Z,99077.47
2022-11-30T04:56:07.483Z,99072.63
2022-11-30T04:58:36.293Z,99088.88
2022-11-30T05:01:04.376Z,99079.66
2022-11-30T05:03:32.266Z,99091.03
2022-11-30T05:06:00.186Z,99092.41
2022-11-30T05:08:28.544Z,99097.25
2022-11-30T05:10:56.677Z,99098.09
2022-11-30T05:13:26.405Z,99083.75
2022-11-30T05:15:54.428Z,99104.03
2022-11-30T05:18:22.926Z,99100.53
2022-11-30T05:20:52.886Z,99095.66
2022-11-30T05:23:22.517Z,99110.31
2022-11-30T05:25:50.635Z,99113.56
2022-11-30T05:28:19.095Z,99109.75
2022-11-30T05:30:47.234Z,99114.88
2022-11-30T05:33:15.188Z,99112.69
2022-11-30T05:35:43.433Z,99115.09
2022-11-30T05:38:11.415Z,99118.41
2022-11-30T05:40:39.345Z,99108.91
2022-11-30T05:43:07.245Z,99100.53
2022-11-30T05:45:35.160Z,99122.78
2022-11-30T05:48:03.047Z,99119.19
2022-11-30T05:50:31.372Z,99120.00
2022-11-30T05:53:00.876Z,99122.19
2022-11-30T05:55:29.889Z,99121.19
2022-11-30T05:57:58.070Z,99133.09
2022-11-30T06:00:26.004Z,99137.13
2022-11-30T06:02:58.372Z,99141.47
2022-11-30T06:05:26.960Z,99134.69
2022-11-30T06:07:55.644Z,99137.47
2022-11-30T06:10:25.817Z,99133.31
2022-11-30T06:12:53.793Z,99139.56
2022-11-30T06:15:22.592Z,99138.19
2022-11-30T06:17:50.529Z,99136.53
2022-11-30T06:20:18.419Z,99130.59
2022-11-30T06:22:46.973Z,99138.22
2022-11-30T06:25:15.165Z,99139.53
2022-11-30T06:27:43.686Z,99139.81
2022-11-30T06:30:12.492Z,99133.81
2022-11-30T06:32:40.518Z,99143.38
2022-11-30T06:35:08.666Z,99141.63
2022-11-30T06:37:36.571Z,99145.47
2022-11-30T06:40:07.239Z,99144.13
2022-11-30T06:42:37.106Z,99149.84
2022-11-30T06:45:06.901Z,99152.56
2022-11-30T06:47:35.358Z,99147.69
2022-11-30T06:50:03.936Z,99158.78
2022-11-30T06:52:32.369Z,99153.91
2022-11-30T06:55:00.680Z,99155.81
2022-11-30T06:57:29.819Z,99148.50
2022-11-30T06:59:58.069Z,99150.91
2022-11-30T07:02:26.106Z,99156.66
2022-11-30T07:04:54.057Z,99156.69
2022-11-30T07:07:22.290Z,99159.59
2022-11-30T07:09:51.105Z,99143.59
2022-11-30T07:12:19.532Z,99163.97
2022-11-30T07:14:48.006Z,99162.03
2022-11-30T07:17:16.585Z,99160.13
2022-11-30T07:19:44.704Z,99159.81
2022-11-30T07:22:14.036Z,99161.25
2022-11-30T07:25:00.444Z,99160.66
2022-11-30T07:27:28.686Z,99154.22
2022-11-30T07:29:56.850Z,99158.25
2022-11-30T07:32:25.091Z,99159.34
2022-11-30T07:34:53.118Z,99170.69
2022-11-30T07:37:21.179Z,99173.38
2022-11-30T07:39:49.685Z,99160.31
2022-11-30T07:42:17.765Z,99169.56
2022-11-30T07:44:45.869Z,99164.69
2022-11-30T07:47:14.173Z,99170.44
2022-11-30T07:49:42.097Z,99173.38
2022-11-30T07:52:09.961Z,99169.91
2022-11-30T07:54:38.001Z,99171.50
2022-11-30T07:57:06.543Z,99177.72
2022-11-30T07:59:34.526Z,99179.09
2022-11-30T08:02:02.624Z,99177.75
2022-11-30T08:04:31.132Z,99189.91
2022-11-30T08:06:59.369Z,99189.97
2022-11-30T08:09:27.297Z,99184.78
2022-11-30T08:11:55.159Z,99199.78
2022-11-30T08:14:23.365Z,99196.25
2022-11-30T08:16:51.825Z,99208.69
2022-11-30T08:19:20.607Z,99210.31
2022-11-30T08:21:49.803Z,99207.34
2022-11-30T08:24:17.932Z,99199.72
2022-11-30T08:26:45.984Z,99211.94
2022-11-30T08:29:13.913Z,99213.31
2022-11-30T08:31:41.840Z,99207.03
2022-11-30T08:34:11.880Z,99197.28
2022-11-30T08:36:41.081Z,99201.59
2022-11-30T08:39:12.430Z,99204.69
2022-11-30T08:41:40.465Z,99213.53
2022-11-30T08:44:08.733Z,99211.41
2022-11-30T08:46:53.450Z,99210.94
2022-11-30T08:52:18.955Z,99207.28
2022-11-30T08:54:48.563Z,99215.25
2022-11-30T08:57:18.792Z,99221.41
2022-11-30T08:59:47.616Z,99218.66
2022-11-30T09:02:17.922Z,99226.88
2022-11-30T09:04:49.211Z,99219.25
2022-11-30T09:07:17.738Z,99221.78
2022-11-30T09:09:45.963Z,99227.69
2022-11-30T09:12:13.872Z,99232.03
2022-11-30T09:14:42.138Z,99229.84
2022-11-30T09:17:10.002Z,99223.63
2022-11-30T09:19:38.214Z,99227.63
2022-11-30T09:22:06.458Z,99232.84
2022-11-30T09:24:34.510Z,99221.44
2022-11-30T09:27:02.566Z,99226.81
2022-11-30T09:29:30.593Z,99225.78
2022-11-30T09:31:58.721Z,99219.25
2022-11-30T09:34:26.613Z,99229.00
2022-11-30T09:36:54.829Z,99233.13
2022-11-30T09:39:23.164Z,99226.34
2022-11-30T09:42:00.299Z,99220.91
2022-11-30T09:44:56.989Z,99224.16
2022-11-30T09:47:46.091Z,99225.53
2022-11-30T09:50:16.710Z,99222.22
2022-11-30T09:52:52.489Z,99222.44
2022-11-30T09:55:49.555Z,99223.25
2022-11-30T09:58:39.775Z,99218.34
2022-11-30T10:01:17.560Z,99218.91
2022-11-30T10:03:46.565Z,99209.66
2022-11-30T10:06:37.628Z,99225.44
2022-11-30T10:09:17.832Z,99232.78
2022-11-30T10:11:52.447Z,99225.22
2022-11-30T10:14:38.132Z,99218.34
2022-11-30T10:17:25.771Z,99209.44
2022-11-30T10:19:59.961Z,99209.63
2022-11-30T10:22:46.522Z,99201.81
2022-11-30T10:25:33.392Z,99188.78
2022-11-30T10:28:38.650Z,99201.19
2022-11-30T10:31:02.201Z,99191.56
2022-11-30T10:33:38.819Z,99184.09
2022-11-30T10:36:14.068Z,99187.91
2022-11-30T10:38:50.100Z,99192.22
2022-11-30T10:41:28.884Z,99179.78
2022-11-30T10:44:16.189Z,99179.91
2022-11-30T10:47:05.637Z,99185.34
2022-11-30T10:49:37.619Z,99176.16
2022-11-30T10:52:09.102Z,99180.44
2022-11-30T10:54:37.364Z,99186.19
2022-11-30T10:57:07.531Z,99177.59
2022-11-30T10:59:54.530Z,99156.00
2022-11-30T11:02:39.662Z,99169.28
2022-11-30T11:05:19.659Z,99160.88
2022-11-30T11:08:18.994Z,99180.66
2022-11-30T11:10:52.237Z,99175.47
2022-11-30T11:13:35.406Z,99171.44
2022-11-30T11:16:05.106Z,99172.53
2022-11-30T11:18:35.015Z,99176.94
2022-11-30T11:21:07.396Z,99177.72
2022-11-30T11:23:35.414Z,99175.53
2022-11-30T11:26:04.489Z,99172.22
2022-11-30T11:28:35.573Z,99175.72
2022-11-30T11:31:22.942Z,99175.63
2022-11-30T11:33:54.158Z,99174.88
2022-11-30T11:36:32.059Z,99157.81
2022-11-30T11:39:01.366Z,99171.38
2022-11-30T11:41:35.269Z,99167.75
2022-11-30T11:44:08.899Z,99168.88
2022-11-30T11:47:03.502Z,99164.25
2022-11-30T11:49:36.723Z,99170.53
2022-11-30T11:52:13.655Z,99167.72
2022-11-30T11:54:51.632Z,99155.97
2022-11-30T11:57:25.187Z,99166.66
2022-11-30T12:00:15.893Z,99159.00
2022-11-30T12:03:43.071Z,99162.22
2022-11-30T12:06:15.024Z,99160.78
2022-11-30T12:08:55.136Z,99156.59
2022-11-30T12:11:37.199Z,99157.91
2022-11-30T12:14:13.049Z,99162.72
2022-11-30T12:16:40.967Z,99165.31
2022-11-30T12:19:16.602Z,99156.44
2022-11-30T12:21:53.743Z,99150.41
2022-11-30T12:24:21.619Z,99149.88
2022-11-30T12:27:05.658Z,99152.19
2022-11-30T12:30:12.585Z,99147.84
2022-11-30T12:33:07.467Z,99150.19
2022-11-30T12:35:59.335Z,99151.75
2022-11-30T12:38:48.767Z,99146.22
2022-11-30T12:41:40.909Z,99149.47
2022-11-30T12:44:30.206Z,99142.88
2022-11-30T12:47:23.184Z,99149.34
2022-11-30T12:49:54.872Z,99140.00
2022-11-30T12:52:29.758Z,99131.66
2022-11-30T12:55:00.536Z,99140.91
2022-11-30T12:57:38.538Z,99133.00
2022-11-30T13:00:21.572Z,99139.84
2022-11-30T13:03:07.867Z,99129.50
2022-11-30T13:05:41.299Z,99131.31
2022-11-30T13:08:43.270Z,99123.81
2022-11-30T13:11:17.587Z,99122.19
2022-11-30T13:13:54.806Z,99126.34
2022-11-30T13:16:24.953Z,99120.66
2022-11-30T13:18:59.679Z,99121.22
2022-11-30T13:21:40.588Z,99120.19
2022-11-30T13:24:16.344Z,99126.19
2022-11-30T13:26:46.198Z,99114.22
2022-11-30T13:29:51.813Z,99137.00
2022-11-30T13:32:56.299Z,99122.84
2022-11-30T13:35:29.672Z,99127.50
2022-11-30T13:38:36.219Z,99126.34
2022-11-30T13:41:07.969Z,99128.72
2022-11-30T13:43:53.757Z,99135.84
2022-11-30T13:46:25.557Z,99133.06
2022-11-30T13:49:23.984Z,99133.00
2022-11-30T13:52:13.599Z,99132.13
2022-11-30T13:54:50.794Z,99134.53
2022-11-30T13:57:38.932Z,99132.53
2022-11-30T14:00:36.374Z,99136.88
2022-11-30T14:03:22.303Z,99129.41
2022-11-30T14:05:54.189Z,99117.09
2022-11-30T14:08:22.046Z,99131.44
2022-11-30T14:10:55.591Z,99120.72
2022-11-30T14:13:29.765Z,99126.13
2022-11-30T14:16:00.741Z,99130.97
2022-11-30T14:18:40.402Z,99125.56
2022-11-30T14:21:22.201Z,99122.91
2022-11-30T14:24:00.045Z,99103.78
2022-11-30T14:26:35.564Z,99131.88
2022-11-30T14:29:12.580Z,99114.75
2022-11-30T14:32:08.571Z,99115.34
2022-11-30T14:34:41.723Z,99114.03
2022-11-30T14:37:23.455Z,99111.03
2022-11-30T14:39:56.673Z,99110.00
2022-11-30T14:42:27.534Z,99115.94
2022-11-30T14:44:56.345Z,99120.88
2022-11-30T14:47:29.901Z,99124.47
2022-11-30T14:50:02.384Z,99115.69
2022-11-30T14:52:50.857Z,99120.13
2022-11-30T14:55:52.971Z,99110.25
2022-11-30T14:58:44.973Z,99119.19
2022-11-30T15:01:23.667Z,99121.91
2022-11-30T15:03:54.721Z,99110.75
2022-11-30T15:06:29.794Z,99114.31
2022-11-30T15:09:01.224Z,99117.84
2022-11-30T15:11:29.465Z,99115.63
2022-11-30T15:14:07.962Z,99114.31
2022-11-30T15:16:36.198Z,99130.63
2022-11-30T15:19:36.473Z,99121.69
2022-11-30T15:22:04.364Z,99124.31
2022-11-30T15:24:32.296Z,99118.91
2022-11-30T15:27:12.729Z,99120.75
2022-11-30T15:29:47.894Z,99120.81
2022-11-30T15:32:20.343Z,99125.75
2022-11-30T15:34:56.092Z,99113.31
2022-11-30T15:37:50.687Z,99129.91
2022-11-30T15:40:38.833Z,99130.94
2022-11-30T15:43:23.972Z,99129.59
2022-11-30T15:45:57.838Z,99127.66
2022-11-30T15:48:35.220Z,99128.28
2022-11-30T15:51:03.203Z,99115.13
2022-11-30T15:53:48.377Z,99121.84
2022-11-30T15:56:27.719Z,99111.81
2022-11-30T15:59:12.062Z,99124.72
2022-11-30T16:02:14.620Z,99124.94
2022-11-30T16:04:57.829Z,99119.19
2022-11-30T16:07:29.814Z,99126.09
2022-11-30T16:10:15.885Z,99128.06
2022-11-30T16:12:45.258Z,99125.03
2022-11-30T16:15:48.095Z,99122.31
2022-11-30T16:18:28.817Z,99126.25
2022-11-30T16:20:59.778Z,99135.75
2022-11-30T16:23:28.342Z,99130.53
2022-11-30T16:25:56.469Z,99130.91
2022-11-30T16:28:24.840Z,99124.06
2022-11-30T16:30:59.399Z,99130.88
2022-11-30T16:33:28.129Z,99125.31
2022-11-30T16:36:12.082Z,99125.72
2022-11-30T16:38:40.440Z,99116.66
2022-11-30T16:41:18.527Z,99119.97
2022-11-30T16:43:47.902Z,99115.03
2022-11-30T16:46:19.611Z,99108.88
2022-11-30T16:48:47.909Z,99112.34
2022-11-30T16:51:21.672Z,99120.03
2022-11-30T16:53:49.784Z,99125.25
2022-11-30T16:56:18.436Z,99132.72
2022-11-30T16:58:46.891Z,99134.94
2022-11-30T17:01:36.506Z,99132.00
2022-11-30T17:04:15.115Z,99138.56
2022-11-30T17:06:45.841Z,99136.34
2022-11-30T17:09:19.902Z,99138.31
2022-11-30T17:11:50.636Z,99144.25
2022-11-30T17:14:20.042Z,99129.50
2022-11-30T17:16:48.039Z,99145.06
2022-11-30T17:19:16.038Z,99140.94
2022-11-30T17:21:44.775Z,99132.50
2022-11-30T17:24:13.507Z,99129.56
2022-11-30T17:26:41.461Z,99133.13
2022-11-30T17:29:09.712Z,99137.44
2022-11-30T17:31:37.624Z,99129.91
2022-11-30T17:34:06.857Z,99129.03
2022-11-30T17:36:34.825Z,99129.03
2022-11-30T17:39:08.867Z,99133.63
2022-11-30T17:41:36.917Z,99130.41
2022-11-30T17:44:04.784Z,99133.38
2022-11-30T17:46:32.879Z,99135.00
2022-11-30T17:49:01.803Z,99127.13
2022-11-30T17:51:30.661Z,99133.88
2022-11-30T17:53:58.950Z,99135.50
2022-11-30T17:56:26.854Z,99133.03
2022-11-30T17:58:54.733Z,99134.91
2022-11-30T18:01:25.424Z,99138.13
2022-11-30T18:03:54.965Z,99128.13
2022-11-30T18:06:23.133Z,99138.16
2022-11-30T18:08:51.074Z,99109.13
2022-11-30T18:11:21.434Z,99138.09
2022-11-30T18:13:53.439Z,99129.16
2022-11-30T18:16:26.859Z,99135.19
2022-11-30T18:18:57.224Z,99140.84
2022-11-30T18:21:27.850Z,99145.97
2022-11-30T18:23:57.624Z,99150.13
2022-11-30T18:26:26.986Z,99150.16
2022-11-30T18:28:57.526Z,99149.38
2022-11-30T18:31:27.879Z,99148.81
2022-11-30T18:33:57.757Z,99143.59
2022-11-30T18:36:25.991Z,99158.00
2022-11-30T18:38:54.376Z,99158.06
2022-11-30T18:41:22.440Z,99155.31
2022-11-30T18:43:50.370Z,99157.69
2022-11-30T18:46:18.361Z,99156.69
2022-11-30T18:48:50.367Z,99166.22
2022-11-30T18:51:24.644Z,99176.22
2022-11-30T18:53:58.469Z,99171.31
2022-11-30T18:56:29.100Z,99167.19
2022-11-30T18:58:59.317Z,99163.72
2022-11-30T19:01:28.645Z,99163.47
2022-11-30T19:04:02.626Z,99168.31
2022-11-30T19:06:33.197Z,99158.81
2022-11-30T19:09:10.432Z,99154.47
2022-11-30T19:11:41.308Z,99152.25
2022-11-30T19:14:13.534Z,99149.81
2022-11-30T19:16:41.574Z,99166.03
2022-11-30T19:19:13.881Z,99159.00
2022-11-30T19:21:47.658Z,99160.78
2022-11-30T19:24:16.528Z,99163.28
2022-11-30T19:26:44.616Z,99163.84
2022-11-30T19:29:12.520Z,99168.19
2022-11-30T19:31:40.770Z,99165.47
2022-11-30T19:34:12.611Z,99149.47
2022-11-30T19:36:41.863Z,99157.84
2022-11-30T19:39:10.005Z,99162.47
2022-11-30T19:41:38.486Z,99162.72
2022-11-30T19:44:12.236Z,99157.53
2022-11-30T19:46:41.212Z,99177.09
2022-11-30T19:49:10.110Z,99172.69
2022-11-30T19:51:38.065Z,99171.59
2022-11-30T19:54:06.018Z,99166.44
2022-11-30T19:56:38.937Z,99160.19
2022-11-30T19:59:06.900Z,99166.72
2022-11-30T20:01:35.418Z,99164.81
2022-11-30T20:04:03.834Z,99174.13
2022-11-30T20:06:34.496Z,99172.78
2022-11-30T20:09:04.419Z,99170.31
2022-11-30T20:11:32.973Z,99170.28
2022-11-30T20:14:00.897Z,99178.13
2022-11-30T20:16:29.711Z,99181.38
2022-11-30T20:19:01.980Z,99178.66
2022-11-30T20:21:33.094Z,99170.78
2022-11-30T20:24:05.337Z,99168.63
2022-11-30T20:26:39.878Z,99171.41
2022-11-30T20:29:12.750Z,99161.56
2022-11-30T20:31:42.727Z,99177.53
2022-11-30T20:34:10.935Z,99169.38
2022-11-30T20:36:39.002Z,99171.75
2022-11-30T20:39:07.506Z,99177.72
2022-11-30T20:41:35.508Z,99178.03
2022-11-30T20:44:03.541Z,99166.34
2022-11-30T20:46:35.144Z,99178.28
2022-11-30T20:49:09.368Z,99167.06
2022-11-30T20:51:37.274Z,99174.00
2022-11-30T20:54:09.221Z,99179.94
2022-11-30T20:56:38.677Z,99175.38
2022-11-30T20:59:09.607Z,99172.88
2022-11-30T21:01:37.712Z,99177.81
2022-11-30T21:04:05.640Z,99179.09
2022-11-30T21:06:34.143Z,99170.75
2022-11-30T21:09:03.408Z,99154.56
2022-11-30T21:11:31.513Z,99167.53
2022-11-30T21:13:59.657Z,99165.69
2022-11-30T21:16:29.605Z,99164.88
2022-11-30T21:18:59.571Z,99147.50
2022-11-30T21:21:33.257Z,99166.34
2022-11-30T21:24:07.337Z,99164.69
2022-11-30T21:26:43.203Z,99159.50
2022-11-30T21:29:13.996Z,99168.38
2022-11-30T21:31:43.168Z,99167.56
2022-11-30T21:34:11.251Z,99165.88
2022-11-30T21:36:39.366Z,99165.50
2022-11-30T21:39:08.304Z,99161.66
2022-11-30T21:41:38.482Z,99158.88
2022-11-30T21:44:09.520Z,99164.00
2022-11-30T21:46:37.589Z,99159.56
2022-11-30T21:49:06.109Z,99168.22
2022-11-30T21:51:33.973Z,99153.03
2022-11-30T21:54:05.620Z,99163.25
2022-11-30T21:56:36.483Z,99168.94
2022-11-30T21:59:06.580Z,99168.03
2022-11-30T22:01:39.861Z,99171.06
2022-11-30T22:04:10.115Z,99167.25
2022-11-30T22:06:39.670Z,99175.63
2022-11-30T22:09:13.712Z,99174.00
2022-11-30T22:11:43.925Z,99168.81
2022-11-30T22:14:15.637Z,99162.72
2022-11-30T22:16:43.866Z,99175.00
2022-11-30T22:19:11.774Z,99175.63
2022-11-30T22:21:41.346Z,99182.72
2022-11-30T22:24:13.406Z,99166.34
2022-11-30T22:26:45.428Z,99181.00
2022-11-30T22:29:13.382Z,99178.06
2022-11-30T22:31:43.359Z,99164.78
2022-11-30T22:34:12.512Z,99177.28
2022-11-30T22:36:41.999Z,99173.25
2022-11-30T22:39:19.572Z,99181.94
2022-11-30T22:41:54.663Z,99171.72
2022-11-30T22:44:24.385Z,99170.84
2022-11-30T22:46:52.344Z,99176.28
2022-11-30T22:49:21.816Z,99177.63
2022-11-30T22:51:50.716Z,99167.31
2022-11-30T22:54:19.712Z,99173.28
2022-11-30T22:56:47.827Z,99166.81
2022-11-30T22:59:16.173Z,99171.38
2022-11-30T23:01:46.629Z,99163.44
2022-11-30T23:04:18.036Z,99158.34
2022-11-30T23:06:48.351Z,99161.63
2022-11-30T23:09:22.399Z,99154.47
2022-11-30T23:11:50.822Z,99135.22
2022-11-30T23:14:19.298Z,99153.22
2022-11-30T23:16:47.350Z,99152.94
2022-11-30T23:19:15.821Z,99150.56
2022-11-30T23:21:48.605Z,99143.53
2022-11-30T23:24:20.696Z,99141.38
2022-11-30T23:26:49.273Z,99147.13
2022-11-30T23:29:17.834Z,99140.19
2022-11-30T23:31:47.284Z,99141.91
2022-11-30T23:34:19.107Z,99134.94
2022-11-30T23:36:48.665Z,99136.34
2022-11-30T23:39:18.857Z,99141.81
2022-11-30T23:41:47.529Z,99126.34
2022-11-30T23:44:15.649Z,99130.47
2022-11-30T23:46:43.697Z,99137.66
2022-11-30T23:49:13.932Z,99125.69
2022-11-30T23:51:42.928Z,99129.72
2022-11-30T23:54:10.977Z,99135.78
2022-11-30T23:56:39.461Z,99132.50
2022-11-30T23:59:07.370Z,99128.50
